Weather observations for the past three days for
Otis Air National Guard Base
| Date | Time (edt) | Wind (kph) | Vis. (km) | Weather | Sky Cond. | Temperature (ºC) | Relative Humidity | Wind Chill (°C) | Heat Index (°C) | Pressure | Precipitation (cm) | ||||||
|---|---|---|---|---|---|---|---|---|---|---|---|---|---|---|---|---|---|
| Air | Dwpt | 6 hour | altimeter (cm) | sea level (mb) | 1 hr | 3 hr | 6 hr | ||||||||||
| Max. | Min. | ||||||||||||||||
| 10 | 18:45 | S 13 | 16.09 | Fair | CLR | 16 | 12 | 77% | 76 | 0.0 | |||||||
| 10 | 17:45 | SW 17 | 16.09 | Fair | CLR | 17 | 13 | 77% | 76 | 0.0 | |||||||
| 10 | 16:45 | SW 28 | 16.09 | Fair | CLR | 18 | 12 | 68% | 76.02 | 0.0 | |||||||
| 10 | 15:45 | S 17 | 16.09 | A Few Clouds | FEW055 | 18 | 13 | 73% | 76 | 0.0 | |||||||
| 10 | 14:45 | W 22 | 16.09 | Mostly Cloudy | BKN055 | 18 | 13 | 73% | 76.02 | 0.0 | |||||||
| 10 | 13:45 | S 20 | 16.09 | Fair | CLR | 21 | 13 | 60% | 76 | 0.0 | |||||||
| 10 | 12:45 | S 17 | 16.09 | Fair | CLR | 19 | 13 | 68% | 76.07 | 0.0 | |||||||
| 10 | 11:56 | SW 17 | 16.09 | Partly Cloudy | SCT014 | 17 | 13 | 77% | 76.07 | 0.0 | |||||||
| 10 | 10:56 | SW 17 | 16.09 | A Few Clouds | FEW014 | 17 | 13 | 77% | 76.1 | 0.0 | |||||||
| 10 | 09:56 | S 15 | 16.09 | Partly Cloudy | SCT010 | 16 | 13 | 83% | 76.02 | 0.0 | |||||||
| 10 | 08:56 | S 9 | 16.09 | Overcast | OVC010 | 15 | 12 | 82% | 76.05 | 0.0 | |||||||
| 10 | 07:56 | Calm | 14.48 | Overcast | SCT004 OVC012 | 13 | 12 | 94% | 76.07 | 0.0 | |||||||
| 10 | 06:56 | S 9 | 9.66 | Fog/Mist | OVC004 | 12 | 12 | 100% | 76.05 | 0.0 | |||||||
| 10 | 05:56 | SE 7 | 16.09 | Overcast | BKN004 OVC022 | 12 | 11 | 94% | 76.02 | 0.0 | |||||||
| 10 | 04:56 | SE 11 | 16.09 | Overcast | BKN014 OVC022 | 13 | 12 | 94% | 76 | 0.0 | |||||||
| 10 | 03:56 | S 13 | 16.09 | Overcast | BKN006 OVC020 | 13 | 12 | 94% | 75.97 | 0.0 | |||||||
| 10 | 02:56 | S 15 | 16.09 | Overcast | BKN008 OVC016 | 13 | 12 | 94% | 75.95 | 0.0 | |||||||
| 10 | 01:56 | S 19 | 16.09 | Overcast | SCT007 OVC016 | 13 | 12 | 94% | 75.95 | 0.0 | |||||||
| 10 | 00:56 | SE 22 G 43 | 16.09 | Overcast | OVC007 | 13 | 12 | 94% | 75.95 | 0.0 | |||||||
| 09 | 23:56 | SE 22 G 43 | 16.09 | Overcast | BKN015 OVC080 | 12 | 11 | 94% | 75.95 | 0.0 | |||||||
| 09 | 22:56 | SE 22 | 16.09 | Overcast | SCT031 OVC043 | 11 | 10 | 94% | 75.97 | 0.0 | |||||||
| 09 | 21:56 | SE 20 | 16.09 | Light Rain | OVC065 | 11 | 10 | 94% | 76.07 | 0.0 | |||||||
| 09 | 20:56 | S 20 | 12.87 | Light Rain | OVC060 | 12 | 11 | 94% | 76.12 | 0.0 | |||||||
| 09 | 19:56 | SW 19 | 16.09 | Light Rain | SCT025 BKN060 OVC080 | 13 | 11 | 88% | 76.1 | 0.0 | |||||||
| 09 | 18:56 | SW 24 | 16.09 | Light Rain | FEW048 OVC065 | 13 | 10 | 82% | 76.07 | 0.0 | |||||||
| 09 | 17:56 | S 24 | 16.09 | Overcast | BKN055 BKN075 OVC085 | 15 | 9 | 68% | 76.02 | 0.0 | |||||||
| 09 | 16:56 | S 33 G 43 | 16.09 | Mostly Cloudy and Breezy | FEW040 BKN120 | 16 | 9 | 63% | 76 | 0.0 | |||||||
| 09 | 15:56 | S 35 G 50 | 16.09 | Mostly Cloudy and Breezy | SCT038 BKN050 BKN110 | 17 | 9 | 60% | 76.02 | 0.0 | |||||||
| 09 | 14:56 | S 31 G 41 | 16.09 | Mostly Cloudy | BKN100 | 16 | 10 | 68% | 76.05 | 0.0 | |||||||
| 09 | 13:56 | S 33 G 41 | 16.09 | Overcast and Breezy | OVC100 | 17 | 9 | 60% | 76.1 | 0.0 | |||||||
| 09 | 12:56 | S 30 G 39 | 16.09 | Overcast | FEW032 OVC100 | 17 | 8 | 56% | 76.1 | 0.0 | |||||||
| 09 | 11:56 | S 28 G 33 | 16.09 | Mostly Cloudy | BKN110 | 16 | 8 | 59% | 76.12 | 0.0 | |||||||
| 09 | 10:56 | S 19 | 16.09 | Overcast | OVC100 | 14 | 8 | 67% | 76.15 | 0.0 | |||||||
| 09 | 09:56 | S 15 | 16.09 | Overcast | OVC085 | 12 | 8 | 77% | 76.17 | 0.0 | |||||||
| 09 | 08:56 | SE 17 | 16.09 | Partly Cloudy | FEW012 SCT085 | 12 | 9 | 82% | 76.2 | 0.0 | |||||||
| 09 | 07:56 | Vrbl 7 | 12.87 | Light Rain | OVC065 | 9 | 9 | 100% | 8 | 76.2 | 0.0 | ||||||
| 09 | 06:56 | S 7 | 16.09 | Light Rain | OVC065 | 9 | 8 | 94% | 8 | 76.25 | 0.0 | ||||||
| 09 | 05:45 | S 9 | 16.09 | Overcast | OVC065 | 8 | 8 | 100% | 7 | 76.15 | 0.0 | ||||||
| 09 | 04:55 | NE 9 | 16.09 | Overcast | OVC065 | 7 | 6 | 93% | 5 | 76.15 | 0.0 | ||||||
| 09 | 03:55 | Calm | 16.09 | Overcast | OVC090 | 7 | 5 | 87% | 76.15 | 0.0 | |||||||
| 09 | 02:55 | Calm | 16.09 | Overcast | OVC090 | 6 | 5 | 93% | 76.12 | 0.0 | |||||||
| 09 | 01:45 | Calm | 16.09 | Fair | CLR | 4 | 3 | 93% | 76.12 | 0.0 | |||||||
| 09 | 00:55 | Calm | 16.09 | Fair | CLR | 6 | 4 | 87% | 76.12 | 0.0 | |||||||
| 08 | 23:45 | Calm | 16.09 | Fair | CLR | 6 | 4 | 87% | 76.1 | 0.0 | |||||||
| 08 | 22:45 | Calm | 16.09 | Fair | CLR | 8 | 5 | 82% | 76.07 | 0.0 | |||||||
| 08 | 21:45 | SW 13 | 16.09 | Fair | CLR | 8 | 5 | 82% | 6 | 76.02 | 0.0 | ||||||
| 08 | 20:45 | SW 15 | 16.09 | Fair | CLR | 9 | 6 | 82% | 7 | 75.95 | 0.0 | ||||||
| 08 | 19:45 | SW 15 | 16.09 | Fair | CLR | 11 | 5 | 67% | 75.84 | 0.0 | |||||||
| 08 | 18:56 | SW 19 | 16.09 | A Few Clouds | FEW070 | 12 | 5 | 63% | 75.79 | 0.0 | |||||||
| 08 | 17:56 | SW 19 | 16.09 | Mostly Cloudy | BKN070 | 13 | 3 | 51% | 75.79 | 0.0 | |||||||
| 08 | 16:56 | SW 19 G 33 | 16.09 | Mostly Cloudy | BKN070 | 12 | 4 | 58% | 75.77 | 0.0 | |||||||
| 08 | 15:56 | SW 37 G 50 | 16.09 | Mostly Cloudy and Breezy | BKN080 | 14 | 5 | 55% | 75.72 | 0.0 | |||||||
| 08 | 14:56 | SW 35 G 48 | 16.09 | Fair and Breezy | CLR | 15 | 2 | 42% | 75.69 | 0.0 | |||||||
| 08 | 13:56 | SW 28 G 44 | 16.09 | Partly Cloudy | SCT090 | 15 | 1 | 39% | 75.72 | 0.0 | |||||||
| 08 | 12:56 | SW 28 G 41 | 16.09 | A Few Clouds | FEW090 | 15 | -1 | 34% | 75.74 | 0.0 | |||||||
| 08 | 11:45 | SW 20 | 16.09 | Fair | CLR | 15 | -1 | 34% | 75.79 | 0.0 | |||||||
| 08 | 10:45 | W 19 | 16.09 | Fair | CLR | 14 | -2 | 33% | 75.84 | 0.0 | |||||||
| 08 | 09:45 | W 9 | 16.09 | Mostly Cloudy | BKN090 | 13 | -2 | 36% | 75.84 | 0.0 | |||||||
| 08 | 08:45 | W 9 | 16.09 | Mostly Cloudy | BKN095 | 11 | 0 | 47% | 75.84 | 0.0 | |||||||
| 08 | 07:45 | W 7 | 16.09 | Overcast | OVC100 | 10 | 1 | 54% | 9 | 75.84 | 0.0 | ||||||
| 08 | 06:45 | NW 7 | 16.09 | Fair | CLR | 8 | 1 | 62% | 7 | 75.79 | 0.0 | ||||||
| 08 | 05:55 | NW 9 | 16.09 | Fair | CLR | 6 | -1 | 61% | 4 | 75.77 | 0.0 | ||||||
| 08 | 04:55 | NW 11 | 16.09 | Fair | CLR | 5 | -1 | 66% | 3 | 75.72 | 0.0 | ||||||
| 08 | 03:55 | NW 6 | 16.09 | Fair | CLR | 7 | -1 | 57% | 75.64 | 0.0 | |||||||
| 08 | 02:55 | NW 7 | 16.09 | Fair | CLR | 8 | -1 | 53% | 7 | 75.64 | 0.0 | ||||||
| 08 | 01:55 | NW 11 | 16.09 | Fair | CLR | 9 | -1 | 50% | 8 | 75.59 | 0.0 | ||||||
| 08 | 00:55 | NW 17 | 16.09 | Fair | CLR | 9 | -1 | 50% | 7 | 75.62 | 0.0 | ||||||
| 07 | 23:55 | NW 11 | 16.09 | Fair | CLR | 9 | -1 | 50% | 8 | 75.62 | 0.0 | ||||||
| 07 | 22:55 | NW 13 | 16.09 | Fair | CLR | 9 | 1 | 58% | 7 | 75.64 | 0.0 | ||||||
| 07 | 21:55 | NW 11 | 16.09 | Fair | CLR | 9 | 1 | 58% | 8 | 75.64 | 0.0 | ||||||
| 07 | 20:55 | NW 9 | 16.09 | Fair | CLR | 10 | 4 | 67% | 9 | 75.57 | 0.0 | ||||||
| 07 | 19:56 | SW 7 | 16.09 | Fair | CLR | 11 | 6 | 72% | 75.49 | 0.0 | |||||||
| Date | Time (edt) | Wind (kph) | Vis. (km) | Weather | Sky Cond. | Air | Dwpt | Max. | Min. | Relative Humidity | Wind Chill (°C) | Heat Index (°C) | altimeter (cm) | sea level (mb) | 1 hr | 3 hr | 6 hr |
| 6 hour | |||||||||||||||||
| Temperature (ºC) | Pressure | Precipitation (cm) | |||||||||||||||